Latest Coastal Weather Observations for Hervey Bay

IDQ60701

Issued at 11:12 pm EST Tuesday 24 January 2017 (issued every 10 minutes, with the page automatically refreshed every 10 minutes)

About coastal observations | Map of coastal stations | Coastal observations for QLD | Marine services | Other Formats
Station Details ID: 040405 Name: HERVEY BAY AIRPORT Lat: -25.32 Lon: 152.88 Height: 12.98 m
Data from the previous 72 hours. | See also: Recent months at Hervey Bay
Date/Time
EST
Temp
°C
Wind Pressure Rain since
9am
mm
Weather Cloud Vis
km
Sea
Height
m
Swell
Dir  Spd
kts
Gust
kts
hPa Trend Height
m
Period
s
Dir
24/11:00pm 25.4 ENE 5 7 1015.1 - 0.0 - - 10 - - - -
24/10:30pm 25.5 NE 6 8 1015.0 - 0.0 - - 10 - - - -
24/10:00pm 25.8 NE 7 9 1015.0 - 0.0 - - 10 - - - -
24/09:30pm 25.9 NE 7 11 1014.6 - 0.0 - - 10 - - - -
24/09:00pm 26.0 NE 7 9 1014.4 - 0.0 - - 10 - - - -
24/08:30pm 26.3 NE 8 13 1014.3 - 0.0 - - 10 - - - -
24/08:00pm 26.4 ENE 8 10 1014.2 - 0.0 - - 10 - - - -
24/07:30pm 26.5 E 10 13 1014.2 - 0.0 - - 10 - - - -
24/07:00pm 26.9 E 10 14 1013.9 - 0.0 - - 10 - - - -
24/06:30pm 27.5 E 9 12 1013.6 - 0.0 - - 10 - - - -
24/06:00pm 28.4 E 10 13 1013.2 - 0.0 - - 10 - - - -
24/05:30pm 29.0 E 10 13 1012.6 - 0.0 - - 10 - - - -
24/05:00pm 29.8 NE 11 15 1012.2 - 0.0 - - 10 - - - -
24/04:30pm 29.8 NNE 12 17 1012.1 - 0.0 - - 10 - - - -
24/04:00pm 30.4 NNE 11 16 1012.1 - 0.0 - - 10 - - - -
24/03:30pm 30.4 NNE 13 17 1012.2 - 0.0 - - 10 - - - -
24/03:00pm 31.4 NNE 12 16 1012.5 - 0.0 - - 10 - - - -
24/02:30pm 31.6 NNE 12 17 1012.5 - 0.0 - - 10 - - - -
24/02:00pm 31.3 NE 9 13 1012.7 - 0.0 - - 10 - - - -
24/01:30pm 32.2 E 9 13 1013.1 - 0.0 - - 10 - - - -
24/01:00pm 31.5 E 9 14 1013.6 - 0.0 - - 10 - - - -
24/12:30pm 31.7 ESE 9 14 1014.0 - 0.0 - - 10 - - - -
24/12:00pm 31.5 ENE 9 13 1014.4 - 0.0 - - 10 - - - -
24/11:30am 31.0 E 8 11 1014.9 - 0.0 - - 10 - - - -
24/11:00am 30.7 ENE 8 12 1015.3 - 0.0 - - 10 - - - -
24/10:30am 30.3 E 8 13 1015.6 - 0.0 - - 10 - - - -
24/10:00am 29.6 E 9 11 1016.0 - 0.0 - - 10 - - - -
24/09:30am 29.4 E 7 10 1016.3 - 0.0 - - 10 - - - -
24/09:00am 28.9 ESE 8 13 1016.2 - 0.0 - - 10 - - - -
24/08:30am 28.4 ESE 7 10 1016.3 - 0.0 - - 10 - - - -
24/08:00am 28.5 ESE 8 11 1016.3 - 0.0 - - 10 - - - -
24/07:30am 28.2 ESE 8 11 1016.4 - 0.0 - - 10 - - - -
24/07:00am 27.5 SE 5 8 1016.1 - 0.0 - - 10 - - - -
24/06:30am 25.8 ESE 7 11 1015.9 - 0.0 - Partly cloudy 10 - - - -
24/06:00am 26.1 ESE 9 13 1015.6 - 0.0 - Mostly cloudy 10 - - - -
24/05:30am 25.4 SE 4 6 1015.4 - 0.0 - Cloudy 10 - - - -
24/05:00am 25.5 SE 5 6 1015.1 - 0.0 - Cloudy 10 - - - -
24/04:30am 25.8 ESE 7 10 1014.8 - 0.0 - Cloudy 10 - - - -
24/04:00am 25.2 SE 5 6 1014.8 - 0.0 - Partly cloudy 10 - - - -
24/03:30am 25.6 NNE 1 3 1014.7 - 0.0 - Cloudy 10 - - - -
24/03:00am 25.9 NE 5 9 1014.9 - 0.0 - Cloudy 10 - - - -
24/02:30am 25.6 ESE 5 6 1014.9 - 0.0 - Cloudy 10 - - - -
24/02:00am 25.9 ESE 6 9 1014.8 - 0.0 - Cloudy 10 - - - -
24/01:30am 25.8 SE 5 7 1014.7 - 0.0 - Cloudy 10 - - - -
24/01:00am 26.1 ENE 5 8 1014.7 - 0.0 - Cloudy 10 - - - -
24/12:30am 25.8 ESE 7 9 1015.0 - 0.0 - Cloudy 10 - - - -
24/12:00am 25.9 ESE 6 9 1015.1 - 0.0 - Cloudy 10 - - - -
 
Date/Time
EST
Temp
°C
Wind Pressure Rain since
9am
mm
Weather Cloud Vis
km
Sea
Height
m
Swell
Dir  Spd
kts
Gust
kts
hPa Trend Height
m
Period
s
Dir
23/11:30pm 26.0 ESE 7 10 1015.5 - 0.0 - Partly cloudy 10 - - - -
23/11:00pm 25.8 ESE 7 9 1015.9 - 0.0 - Cloudy 10 - - - -
23/10:30pm 26.0 ESE 8 11 1016.0 - 0.0 - Cloudy 10 - - - -
23/10:00pm 26.1 E 7 10 1016.2 - 0.0 - Cloudy 10 - - - -
23/09:30pm 26.0 E 8 10 1016.1 - 0.0 - Partly cloudy 10 - - - -
23/09:00pm 25.7 E 9 13 1016.0 - 0.0 - Mostly clear 10 - - - -
23/08:30pm 26.2 E 9 12 1015.9 - 0.0 - Cloudy 10 - - - -
23/08:00pm 26.4 ESE 10 13 1015.6 - 0.0 - Partly cloudy 10 - - - -
23/07:30pm 26.4 ESE 8 12 1015.2 - 0.0 - Cloudy 10 - - - -
23/07:00pm 26.4 ESE 10 13 1015.0 - 0.0 - Cloudy 10 - - - -
23/06:30pm 26.7 ESE 11 15 1014.9 - 0.0 - Cloudy 10 - - - -
23/06:00pm 26.6 ESE 11 15 1014.4 - 0.0 - Partly cloudy 10 - - - -
23/05:30pm 27.1 ESE 11 17 1013.9 - 0.0 - Partly cloudy 10 - - - -
23/05:00pm 28.5 ESE 11 15 1013.5 - 0.0 - Partly cloudy 10 - - - -
23/04:30pm 28.7 SE 11 16 1013.1 - 0.0 - Partly cloudy 10 - - - -
23/04:00pm 29.3 ESE 14 18 1013.0 - 0.0 - Partly cloudy 10 - - - -
23/03:30pm 29.5 ESE 13 17 1013.1 - 0.0 - - 10 - - - -
23/03:00pm 30.1 ESE 13 17 1013.2 - 0.0 - - 10 - - - -
23/02:30pm 30.0 ESE 13 20 1013.3 - 0.0 - - 10 - - - -
23/02:00pm 30.7 ESE 12 18 1013.6 - 0.0 - - 10 - - - -
23/01:30pm 30.8 E 12 17 1013.7 - 0.0 - - 10 - - - -
23/01:00pm 30.2 ESE 12 17 1014.0 - 0.0 - Partly cloudy 10 - - - -
23/12:30pm 30.2 ESE 11 17 1014.4 - 0.0 - - 10 - - - -
23/12:00pm 30.2 ESE 11 17 1014.7 - 0.0 - - 10 - - - -
23/11:30am 30.1 E 11 15 1015.0 - 0.0 - - 10 - - - -
23/11:00am 29.4 ESE 11 15 1015.3 - 0.0 - Partly cloudy 10 - - - -
23/10:30am 29.0 ESE 11 17 1015.4 - 0.0 - - 10 - - - -
23/10:00am 28.7 ESE 12 16 1015.7 - 0.0 - - 10 - - - -
23/09:30am 29.1 ESE 10 17 1015.8 - 0.0 - - 10 - - - -
23/09:00am 28.5 SE 10 15 1015.9 - 0.0 - - 10 - - - -
23/08:30am 28.0 SE 7 11 1015.6 - 0.0 - - 10 - - - -
23/08:00am 26.8 SSE 6 11 1015.5 - 0.0 - Partly cloudy 10 - - - -
23/07:30am 25.5 SSW 6 9 1015.3 - 0.0 - Partly cloudy 10 - - - -
23/07:00am 23.2 SSW 7 9 1015.2 - 0.0 - - 10 - - - -
23/06:30am 22.2 SSW 5 8 1015.1 - 0.0 - - 10 - - - -
23/06:00am 20.7 SW 5 6 1014.7 - 0.0 - - 10 - - - -
23/05:30am 19.4 SSW 5 7 1014.3 - 0.0 - Partly cloudy 10 - - - -
23/05:00am 19.4 SSW 6 7 1013.8 - 0.0 - - 10 - - - -
23/04:30am 19.6 SW 5 6 1013.5 - 0.0 - - 10 - - - -
23/04:00am 19.8 SW 4 5 1013.5 - 0.0 - Partly cloudy 10 - - - -
23/03:30am 20.6 SW 4 5 1013.4 - 0.0 - Partly cloudy 10 - - - -
23/03:00am 20.6 SSW 5 7 1013.4 - 0.0 - Cloudy 10 - - - -
23/02:30am 20.0 SW 5 7 1013.6 - 0.0 - - 10 - - - -
23/02:00am 20.4 SW 5 6 1013.7 - 0.0 - - 10 - - - -
23/01:30am 22.1 S 4 5 1013.9 - 0.0 - - 10 - - - -
23/01:00am 23.1 SSE 5 7 1014.1 - 0.0 - - 10 - - - -
23/12:30am 23.3 SSE 5 7 1014.4 - 0.0 - - 10 - - - -
23/12:00am 23.6 SE 5 7 1014.5 - 0.0 - - 10 - - - -
 
Date/Time
EST
Temp
°C
Wind Pressure Rain since
9am
mm
Weather Cloud Vis
km
Sea
Height
m
Swell
Dir  Spd
kts
Gust
kts
hPa Trend Height
m
Period
s
Dir
22/11:30pm 23.8 SSE 6 8 1014.6 - 0.0 - - 10 - - - -
22/11:00pm 24.2 SSE 7 10 1014.9 - 0.0 - - 10 - - - -
22/10:30pm 24.5 SE 7 12 1015.1 - 0.0 - - 10 - - - -
22/10:00pm 24.9 SE 8 12 1015.2 - 0.0 - Cloudy 10 - - - -
22/09:30pm 25.3 SE 8 12 1015.2 - 0.0 - Cloudy 10 - - - -
22/09:00pm 25.4 SE 9 15 1014.9 - 0.0 - Mostly cloudy 10 - - - -
22/08:30pm 25.4 SE 7 12 1014.9 - 0.0 - Cloudy 10 - - - -
22/08:00pm 25.5 SE 10 17 1014.6 - 0.0 - Partly cloudy 10 - - - -
22/07:30pm 25.5 SE 10 15 1014.5 - 0.0 - Partly cloudy 10 - - - -
22/07:00pm 25.5 SSE 9 15 1014.4 - 0.0 - Partly cloudy 10 - - - -
22/06:30pm 25.7 SE 10 17 1014.1 - 0.0 - Partly cloudy 10 - - - -
22/06:00pm 25.9 SE 9 15 1013.7 - 0.0 - Cloudy 10 - - - -
22/05:30pm 26.4 SE 9 15 1013.5 - 0.0 - Partly cloudy 10 - - - -
22/05:00pm 26.5 SE 11 17 1013.4 - 0.0 - Cloudy 10 - - - -
22/04:30pm 26.6 SE 11 16 1013.2 - 0.0 - Partly cloudy 10 - - - -
22/04:00pm 27.2 SE 9 16 1013.0 - 0.0 - Cloudy 10 - - - -
22/03:30pm 27.5 SE 12 18 1013.1 - 0.0 - Cloudy 10 - - - -
22/03:00pm 28.0 SE 11 18 1013.4 - 0.0 - Cloudy 10 - - - -
22/02:30pm 28.5 SE 11 17 1013.5 - 0.0 - Partly cloudy 10 - - - -
22/02:00pm 27.9 ESE 13 18 1013.8 - 0.0 - Partly cloudy 10 - - - -
22/01:30pm 28.0 ESE 12 18 1013.9 - 0.0 - Partly cloudy 10 - - - -
22/01:00pm 27.0 SE 12 17 1014.1 - 0.0 - Partly cloudy 10 - - - -
22/12:30pm 28.5 SE 12 20 1014.2 - 0.0 - Partly cloudy 10 - - - -
22/12:00pm 27.2 SE 12 19 1014.5 - 0.0 - Cloudy 10 - - - -
22/11:30am 28.0 SE 11 19 1014.8 - 0.0 - Cloudy 10 - - - -
22/11:00am 27.3 SE 11 19 1015.0 - 0.0 - Partly cloudy 10 - - - -
22/10:30am 26.8 SE 10 17 1015.1 - 0.0 - Partly cloudy 10 - - - -
22/10:00am 26.9 SE 11 16 1014.9 - 0.0 - Partly cloudy 10 - - - -
22/09:30am 26.8 SE 11 18 1014.8 - 0.0 - Cloudy 10 - - - -
22/09:00am 26.1 SE 11 17 1014.7 - 0.8 - Cloudy 10 - - - -
22/08:30am 25.8 SE 11 16 1014.6 - 0.8 - Partly cloudy 10 - - - -
22/08:00am 24.9 SE 12 17 1014.2 - 0.8 - Partly cloudy 10 - - - -
22/07:30am 24.3 SE 11 19 1013.9 - 0.8 - Partly cloudy 10 - - - -
22/07:12am 23.8 SE 11 17 1013.9 - 0.8 - Partly cloudy 10 - - - -
22/07:00am 23.6 SE 10 16 1013.9 - 0.8 - Partly cloudy 10 - - - -
22/06:48am 23.6 SSE 10 15 1013.9 - 0.8 - Partly cloudy 10 - - - -
22/06:30am 23.5 SSE 9 15 1013.6 - 0.8 - Partly cloudy 10 - - - -
22/06:00am 23.5 SE 7 11 1013.4 - 0.8 Recent precip. Cloudy 10 - - - -
22/05:59am 23.5 SE 7 11 1013.4 - 0.8 - Partly cloudy 10 - - - -
22/05:49am 23.4 SE 7 10 1013.3 - 0.8 - Partly cloudy 10 - - - -
22/05:44am 23.3 SE 7 9 1013.2 - 0.8 - Partly cloudy 10 - - - -
22/05:30am 23.2 SSE 7 10 1013.0 - 0.8 - Partly cloudy 2 - - - -
22/05:20am 23.3 SSE 7 12 1012.8 - 0.4 - Partly cloudy 10 - - - -
22/05:00am 23.7 SE 8 14 1012.5 - 0.2 - Partly cloudy 5 - - - -
22/04:42am 23.8 SE 9 15 1012.2 - 0.0 - Partly cloudy 10 - - - -
22/04:30am 23.6 SE 9 15 1011.9 - 0.0 - Partly cloudy 5 - - - -
22/04:29am 23.6 SE 9 15 1011.9 - 0.0 - Partly cloudy 5 - - - -
22/04:26am 23.7 SE 9 14 1011.9 - 0.0 - Partly cloudy 5 - - - -
22/04:00am 23.6 SSE 7 11 1011.5 - 0.0 - Partly cloudy 10 - - - -
22/03:58am 23.5 SSE 7 11 1011.6 - 0.0 - Partly cloudy 10 - - - -
22/03:30am 23.4 SE 9 15 1011.7 - 0.0 - Partly cloudy 8 - - - -
22/03:03am 23.3 SE 7 15 1011.5 - 0.0 - Partly cloudy 10 - - - -
22/03:00am 23.4 SE 6 10 1011.4 - 0.0 - Cloudy 10 - - - -
22/02:39am 23.6 SSE 8 14 1011.4 - 0.0 - Partly cloudy 5 - - - -
22/02:33am 24.0 SE 8 15 1011.3 - 0.0 - Partly cloudy 10 - - - -
22/02:30am 24.0 SE 9 15 1011.3 - 0.0 - Partly cloudy 10 - - - -
22/02:29am 24.0 SE 9 15 1011.3 - 0.0 - Partly cloudy 10 - - - -
22/02:00am 23.8 SSE 12 17 1011.3 - 0.0 - Partly cloudy 10 - - - -
22/01:40am 24.1 SSE 10 14 1011.5 - 0.0 - Partly cloudy 10 - - - -
22/01:30am 24.3 SSE 9 14 1011.3 - 0.0 - Partly cloudy 10 - - - -
22/01:00am 24.4 SSE 11 17 1011.5 - 0.0 - Partly cloudy 10 - - - -
22/12:39am 24.3 SSE 11 17 1011.6 - 0.0 - Partly cloudy 10 - - - -
22/12:30am 24.3 SSE 13 20 1011.7 - 0.0 - Partly cloudy 10 - - - -
22/12:21am 24.4 SSE 11 18 1011.7 - 0.0 - Partly cloudy 10 - - - -
22/12:00am 24.5 SSE 10 16 1011.7 - 0.0 - Mostly cloudy 10 - - - -
 
Date/Time
EST
Temp
°C
Wind Pressure Rain since
9am
mm
Weather Cloud Vis
km
Sea
Height
m
Swell
Dir  Spd
kts
Gust
kts
hPa Trend Height
m
Period
s
Dir
21/11:30pm 25.0 SSE 10 15 1011.8 - 0.0 - Partly cloudy 10 - - - -
21/11:15pm 25.3 SE 11 19 1011.7 - 0.0 - Partly cloudy 10 - - - -

Other Formats:

Comma delimited format used in spreadsheet applications
http://www.bom.gov.au/fwo/IDQ60701/IDQ60701.95565.axf

JavaScript Object Notation format (JSON) in row-major order
http://www.bom.gov.au/fwo/IDQ60701/IDQ60701.95565.json